Time;durP1;ratioP1;P1;durP2;ratioP2;P2;SDS_P1;SDS_P2;PMS_P1;PMS_P2;Temp;Humidity;BMP_temperature;BMP_pressure;BME280_temperature;BME280_humidity;BME280_pressure;Samples;Min_cycle;Max_cycle;Signal;HPM_P1;HPM_P2
2023/01/13 00:01:59;;;;;;;;;;;;;;;14.57;49.93;99851.63;4983034;27;114432;-67
2023/01/13 00:04:25;;;;;;;;;;;;;;;14.56;49.95;99844.59;4964021;27;111820;-67
2023/01/13 00:06:51;;;;;;;;;;;;;;;14.57;50.02;99848.91;4964258;27;122076;-67
2023/01/13 00:09:17;;;;;;;;;;;;;;;14.56;50.08;99853.53;4997852;27;120597;-67
2023/01/13 00:11:43;;;;;;;;;;;;;;;14.56;49.95;99844.59;4981453;27;104713;-67
2023/01/13 00:14:09;;;;;;;;;;;;;;;14.57;49.83;99846.19;4964124;27;122624;-67
2023/01/13 00:16:35;;;;;;;;;;;;;;;14.57;49.75;99846.19;4982825;27;127814;-67
2023/01/13 00:19:01;;;;;;;;;;;;;;;14.56;49.90;99839.19;4963551;27;127687;-67
2023/01/13 00:21:27;;;;;;;;;;;;;;;14.56;49.74;99837.25;4983013;27;99307;-67
2023/01/13 00:23:53;;;;;;;;;;;;;;;14.56;49.93;99826.41;4965010;27;101072;-67
2023/01/13 00:26:21;;;;;;;;;;;;;;;14.57;49.85;99832.63;4979942;27;98301;-67
2023/01/13 00:28:47;;;;;;;;;;;;;;;14.57;50.05;99829.91;4981202;27;122197;-67
2023/01/13 00:31:14;;;;;;;;;;;;;;;14.57;49.78;99830.72;4980772;27;117162;-67
2023/01/13 00:33:40;;;;;;;;;;;;;;;14.57;49.87;99828.00;4965702;27;119465;-67
2023/01/13 00:36:07;;;;;;;;;;;;;;;14.58;49.96;99820.66;4963514;27;106775;-67
2023/01/13 00:38:33;;;;;;;;;;;;;;;14.58;49.88;99828.81;4994418;27;99519;-67
2023/01/13 00:41:03;;;;;;;;;;;;;;;14.58;49.81;99835.06;4980352;27;98516;-68
2023/01/13 00:43:31;;;;;;;;;;;;;;;14.58;50.05;99832.34;4983419;27;98075;-68
2023/01/13 00:45:57;;;;;;;;;;;;;;;14.58;49.93;99829.63;4982779;27;100193;-68
2023/01/13 00:48:23;;;;;;;;;;;;;;;14.60;49.77;99832.03;4966416;27;102362;-67
2023/01/13 00:50:59;;;;;;;;;;;;;;;14.60;49.67;99827.41;4999506;27;115167;-67
2023/01/13 00:53:25;;;;;;;;;;;;;;;14.60;49.84;99824.69;4965204;27;97897;-67
2023/01/13 00:56:02;;;;;;;;;;;;;;;14.59;49.75;99817.66;4982665;27;98189;-67
2023/01/13 00:58:29;;;;;;;;;;;;;;;14.61;50.11;99825.47;4999567;27;102664;-67
2023/01/13 01:00:58;;;;;;;;;;;;;;;14.60;49.84;99819.25;4966077;27;98237;-66
2023/01/13 01:03:24;;;;;;;;;;;;;;;14.61;49.81;99828.19;4979458;27;123937;-66
2023/01/13 01:05:50;;;;;;;;;;;;;;;14.60;50.03;99827.41;4978876;27;98031;-66
2023/01/13 01:08:16;;;;;;;;;;;;;;;14.60;49.91;99830.09;4981295;27;128496;-65
2023/01/13 01:10:42;;;;;;;;;;;;;;;14.59;49.71;99828.50;4983630;27;129795;-66
2023/01/13 01:13:10;;;;;;;;;;;;;;;14.60;49.69;99824.69;4981412;27;121586;-65
2023/01/13 01:15:42;;;;;;;;;;;;;;;14.59;49.71;99823.09;4965467;27;100614;-65
2023/01/13 01:18:08;;;;;;;;;;;;;;;14.59;49.89;99820.38;4965532;27;98019;-65
2023/01/13 01:20:35;;;;;;;;;;;;;;;14.60;49.76;99834.72;4998337;27;126343;-66
2023/01/13 01:23:01;;;;;;;;;;;;;;;14.59;49.83;99822.28;4980920;27;116513;-64
2023/01/13 01:25:27;;;;;;;;;;;;;;;14.59;49.98;99819.56;4993154;27;129455;-65
2023/01/13 01:27:53;;;;;;;;;;;;;;;14.59;49.88;99825.81;4995924;27;126527;-65
2023/01/13 01:30:19;;;;;;;;;;;;;;;14.58;49.91;99821.50;4980106;27;99440;-65
2023/01/13 01:32:45;;;;;;;;;;;;;;;14.59;49.84;99819.56;4981951;27;120412;-67
2023/01/13 01:35:11;;;;;;;;;;;;;;;14.58;49.99;99815.25;4979168;27;127185;-65
2023/01/13 01:37:37;;;;;;;;;;;;;;;14.58;49.71;99812.53;4962616;27;105047;-67
2023/01/13 01:40:03;;;;;;;;;;;;;;;14.57;50.01;99814.44;4979261;27;98635;-66
2023/01/13 01:45:14;;;;;;;;;;;;;;;14.57;49.78;99808.22;5000864;27;98562;-67
2023/01/13 01:47:40;;;;;;;;;;;;;;;14.57;49.87;99802.81;4996961;27;99708;-66
2023/01/13 01:50:07;;;;;;;;;;;;;;;14.56;49.76;99806.63;4978255;27;98083;-67
2023/01/13 01:52:35;;;;;;;;;;;;;;;14.56;50.03;99803.91;4982195;27;118446;-66
2023/01/13 01:55:07;;;;;;;;;;;;;;;14.56;49.90;99801.22;4981355;27;99611;-67
2023/01/13 01:58:09;;;;;;;;;;;;;;;14.55;49.99;99800.41;4990109;27;98102;-66
2023/01/13 02:00:35;;;;;;;;;;;;;;;14.54;50.03;99801.53;4995915;27;98481;-66
2023/01/13 02:03:01;;;;;;;;;;;;;;;14.54;50.02;99798.81;4965845;27;99509;-66
2023/01/13 02:05:27;;;;;;;;;;;;;;;14.54;49.72;99787.97;4997353;27;127797;-66
2023/01/13 02:07:54;;;;;;;;;;;;;;;14.54;50.01;99787.97;4981561;27;100738;-67
2023/01/13 02:10:21;;;;;;;;;;;;;;;14.55;49.70;99783.34;4963141;27;117462;-67
2023/01/13 02:12:47;;;;;;;;;;;;;;;14.54;50.01;99787.16;4979868;27;97948;-66
2023/01/13 02:15:21;;;;;;;;;;;;;;;14.55;50.09;99786.06;4978683;27;127921;-66
2023/01/13 02:18:05;;;;;;;;;;;;;;;14.55;50.09;99783.34;4964465;27;98003;-66
2023/01/13 02:20:31;;;;;;;;;;;;;;;14.55;49.80;99781.44;4979327;27;119667;-66
2023/01/13 02:24:52;;;;;;;;;;;;;;;14.55;49.95;99778.72;4997610;27;100943;-67
2023/01/13 02:26:07;;;;;;;;;;;;;;;14.55;49.81;99775.22;5003870;27;98086;-67
2023/01/13 02:31:40;;;;;;;;;;;;;;;14.55;49.93;99769.78;5002215;27;98710;-66
2023/01/13 02:31:41;;;;;;;;;;;;;;;14.55;49.67;99767.06;5003241;27;98157;-66
2023/01/13 02:34:10;;;;;;;;;;;;;;;14.55;50.10;99767.06;4988835;27;98094;-67
2023/01/13 02:36:47;;;;;;;;;;;;;;;14.56;49.84;99769.47;4981480;27;130399;-67
2023/01/13 02:39:24;;;;;;;;;;;;;;;14.56;49.71;99758.63;4986414;27;97920;-67
2023/01/13 02:45:21;;;;;;;;;;;;;;;14.56;50.03;99752.41;5005049;27;98110;-67
2023/01/13 02:47:49;;;;;;;;;;;;;;;14.56;50.03;99749.69;4940340;28;98314;-68
2023/01/13 02:50:18;;;;;;;;;;;;;;;14.55;49.98;99746.19;4971221;27;99034;-68
2023/01/13 02:52:47;;;;;;;;;;;;;;;14.55;50.14;99740.75;4982835;27;125627;-67
2023/01/13 02:55:16;;;;;;;;;;;;;;;14.55;49.81;99735.31;4969514;27;98842;-67
2023/01/13 02:57:42;;;;;;;;;;;;;;;14.55;49.72;99732.63;4984322;27;99465;-67
2023/01/13 03:00:08;;;;;;;;;;;;;;;14.56;49.85;99736.91;4965036;27;112218;-67
2023/01/13 03:02:34;;;;;;;;;;;;;;;14.55;49.91;99731.81;4981758;27;125655;-66
2023/01/13 03:05:02;;;;;;;;;;;;;;;14.55;49.95;99735.31;4984776;27;98124;-67
2023/01/13 03:07:52;;;;;;;;;;;;;;;14.56;49.94;99738.84;4962106;27;112876;-68
2023/01/13 03:10:26;;;;;;;;;;;;;;;14.55;49.80;99727.19;4987894;27;99985;-67
2023/01/13 03:13:07;;;;;;;;;;;;;;;14.55;50.00;99729.09;5000904;27;100176;-68
2023/01/13 03:16:03;;;;;;;;;;;;;;;14.55;49.96;99740.75;4997541;27;99547;-67
2023/01/13 03:18:44;;;;;;;;;;;;;;;14.56;49.75;99733.41;4998502;27;98225;-67
2023/01/13 03:21:29;;;;;;;;;;;;;;;14.54;50.01;99735.63;4999979;27;100383;-67
2023/01/13 03:24:02;;;;;;;;;;;;;;;14.51;49.72;99730.84;5013152;27;100136;-68
2023/01/13 03:27:03;;;;;;;;;;;;;;;14.49;49.85;99733.84;4981975;27;117132;-68
2023/01/13 03:30:00;;;;;;;;;;;;;;;14.47;50.17;99731.44;4975649;27;100434;-67
2023/01/13 03:32:30;;;;;;;;;;;;;;;14.47;50.16;99738.75;4979713;27;100092;-68
2023/01/13 03:35:27;;;;;;;;;;;;;;;14.44;49.73;99732.03;4997764;27;98136;-67
2023/01/13 03:38:03;;;;;;;;;;;;;;;14.45;49.81;99732.84;4997328;27;118585;-67
2023/01/13 03:40:32;;;;;;;;;;;;;;;14.44;50.05;99733.97;4983110;27;100165;-67
2023/01/13 03:46:12;;;;;;;;;;;;;;;14.44;49.69;99725.81;5001790;27;98149;-67
2023/01/13 03:48:39;;;;;;;;;;;;;;;14.44;49.67;99729.31;4981304;27;98543;-67
2023/01/13 03:51:05;;;;;;;;;;;;;;;14.44;49.77;99726.63;4980666;27;111241;-67
2023/01/13 03:53:41;;;;;;;;;;;;;;;14.43;50.08;99725.03;4980981;27;100055;-67
2023/01/13 03:56:11;;;;;;;;;;;;;;;14.43;49.59;99719.59;4982971;27;123540;-67
2023/01/13 03:58:40;;;;;;;;;;;;;;;14.44;49.95;99726.63;4967321;27;116417;-67
2023/01/13 04:01:19;;;;;;;;;;;;;;;14.44;49.81;99723.09;4980149;27;98143;-67
2023/01/13 04:03:51;;;;;;;;;;;;;;;14.44;49.97;99720.41;4980118;27;100922;-67
2023/01/13 04:06:24;;;;;;;;;;;;;;;14.44;49.87;99728.53;5017082;27;98148;-68
2023/01/13 04:08:56;;;;;;;;;;;;;;;14.44;49.65;99734.75;4982475;27;97948;-67
2023/01/13 04:11:34;;;;;;;;;;;;;;;14.45;49.99;99736.34;4999526;27;98516;-67
2023/01/13 04:14:01;;;;;;;;;;;;;;;14.45;50.09;99739.06;5000188;27;98276;-67
2023/01/13 04:16:27;;;;;;;;;;;;;;;14.45;49.70;99732.84;4965978;27;100091;-67
2023/01/13 04:18:53;;;;;;;;;;;;;;;14.46;49.71;99723.59;4967190;27;121899;-67
2023/01/13 04:21:18;;;;;;;;;;;;;;;14.46;50.03;99735.25;4963346;27;130552;-67
2023/01/13 04:23:44;;;;;;;;;;;;;;;14.47;49.83;99733.34;4965744;27;100215;-67
2023/01/13 04:26:10;;;;;;;;;;;;;;;14.47;49.91;99734.13;4981945;27;127491;-67
2023/01/13 04:28:36;;;;;;;;;;;;;;;14.48;49.76;99737.66;4964678;27;124038;-67
2023/01/13 04:31:02;;;;;;;;;;;;;;;14.48;49.76;99741.16;4966261;27;100158;-67
2023/01/13 04:33:28;;;;;;;;;;;;;;;14.51;49.60;99742.47;4980073;27;123671;-67
2023/01/13 04:35:54;;;;;;;;;;;;;;;14.50;49.99;99738.16;4966372;27;127720;-67
2023/01/13 04:38:20;;;;;;;;;;;;;;;14.52;49.64;99732.44;4980692;27;121781;-67
2023/01/13 04:40:46;;;;;;;;;;;;;;;14.53;50.06;99736.75;4981480;27;99713;-67
2023/01/13 04:43:14;;;;;;;;;;;;;;;14.54;49.72;99738.34;4983044;27;98096;-67
2023/01/13 04:45:40;;;;;;;;;;;;;;;14.53;50.01;99734.81;4964976;27;99158;-67
2023/01/13 04:48:07;;;;;;;;;;;;;;;14.55;50.03;99734.53;4985300;27;98533;-67
2023/01/13 04:50:33;;;;;;;;;;;;;;;14.55;49.70;99734.53;4982749;27;99560;-67
2023/01/13 04:53:00;;;;;;;;;;;;;;;14.55;49.95;99731.81;4977392;27;120081;-68
2023/01/13 04:55:26;;;;;;;;;;;;;;;14.55;49.89;99735.31;4968018;27;98093;-67
2023/01/13 04:57:52;;;;;;;;;;;;;;;14.56;49.85;99736.13;5000046;27;98030;-67
2023/01/13 05:00:19;;;;;;;;;;;;;;;14.56;49.63;99736.91;4961330;27;127724;-68
2023/01/13 05:02:45;;;;;;;;;;;;;;;14.57;49.90;99735.81;4997783;27;99727;-68
2023/01/13 05:05:11;;;;;;;;;;;;;;;14.57;49.84;99745.84;4980914;27;127321;-67
2023/01/13 05:07:37;;;;;;;;;;;;;;;14.59;49.74;99741.72;4965080;27;116469;-68
2023/01/13 05:10:03;;;;;;;;;;;;;;;14.59;50.12;99749.06;4981979;27;127583;-68
2023/01/13 05:17:58;;;;;;;;;;;;;;;14.60;49.92;99756.09;4987546;27;98288;-67
2023/01/13 05:20:24;;;;;;;;;;;;;;;14.59;49.54;99747.16;4979582;27;124215;-68
2023/01/13 05:25:36;;;;;;;;;;;;;;;14.61;49.72;99755.75;4997925;27;98232;-68
2023/01/13 05:28:02;;;;;;;;;;;;;;;14.61;49.95;99749.53;4965528;27;111740;-68
2023/01/13 05:30:30;;;;;;;;;;;;;;;14.61;49.92;99750.34;4980913;27;127725;-68
2023/01/13 05:32:56;;;;;;;;;;;;;;;14.61;50.03;99739.50;4963148;27;126529;-69
2023/01/13 05:35:22;;;;;;;;;;;;;;;14.62;49.82;99745.72;4966470;27;98794;-68
2023/01/13 05:37:48;;;;;;;;;;;;;;;14.64;49.70;99751.63;4983409;27;97889;-67
2023/01/13 05:43:18;;;;;;;;;;;;;;;14.64;49.81;99749.72;4985758;27;99035;-67
2023/01/13 05:45:49;;;;;;;;;;;;;;;14.65;49.79;99750.53;4983254;27;98660;-68
2023/01/13 05:48:15;;;;;;;;;;;;;;;14.65;49.76;99736.97;4983152;27;98035;-67
2023/01/13 05:50:41;;;;;;;;;;;;;;;14.66;49.66;99741.28;4983408;27;98297;-67
2023/01/13 05:53:07;;;;;;;;;;;;;;;14.66;49.63;99733.94;4965527;27;99309;-69
2023/01/13 05:55:33;;;;;;;;;;;;;;;14.68;49.70;99741.75;4979209;27;127952;-67
2023/01/13 05:57:59;;;;;;;;;;;;;;;14.68;49.89;99741.75;4979362;27;97923;-67
2023/01/13 06:00:25;;;;;;;;;;;;;;;14.69;49.87;99757.72;4981494;27;123319;-67
2023/01/13 06:02:51;;;;;;;;;;;;;;;14.68;49.68;99748.00;4965190;27;127997;-67
2023/01/13 06:05:17;;;;;;;;;;;;;;;14.70;49.82;99748.50;4997274;27;128423;-67
2023/01/13 06:07:43;;;;;;;;;;;;;;;14.71;49.91;99750.09;4981020;27;120526;-67
2023/01/13 06:10:09;;;;;;;;;;;;;;;14.71;49.96;99747.38;4964734;27;128221;-67
2023/01/13 06:12:35;;;;;;;;;;;;;;;14.73;49.70;99752.47;4996375;27;113641;-67
2023/01/13 06:15:01;;;;;;;;;;;;;;;14.72;49.86;99743.53;4999504;27;99379;-67
2023/01/13 06:17:27;;;;;;;;;;;;;;;14.73;49.76;99752.47;4981373;27;98238;-68
2023/01/13 06:19:53;;;;;;;;;;;;;;;14.73;49.78;99752.47;4979195;27;129095;-67
2023/01/13 06:22:34;;;;;;;;;;;;;;;14.75;49.67;99763.03;4980946;27;128464;-67
2023/01/13 06:25:00;;;;;;;;;;;;;;;14.75;49.87;99768.47;4997680;27;98078;-67
2023/01/13 06:27:26;;;;;;;;;;;;;;;14.75;49.70;99761.13;4964555;27;98134;-67
2023/01/13 06:29:52;;;;;;;;;;;;;;;14.76;49.95;99761.91;4966509;27;122672;-67
2023/01/13 06:32:20;;;;;;;;;;;;;;;14.76;49.72;99751.84;4980969;27;128335;-68
2023/01/13 06:34:48;;;;;;;;;;;;;;;14.76;49.73;99759.19;4981639;27;98907;-67
2023/01/13 06:37:14;;;;;;;;;;;;;;;14.78;49.84;99752.34;5006398;27;118902;-67
2023/01/13 06:39:40;;;;;;;;;;;;;;;14.76;49.85;99749.16;4979903;27;98861;-67
2023/01/13 06:44:51;;;;;;;;;;;;;;;14.78;49.72;99755.06;4987590;27;99459;-68
2023/01/13 06:47:17;;;;;;;;;;;;;;;14.78;49.92;99743.41;4981557;27;113335;-67
2023/01/13 06:49:43;;;;;;;;;;;;;;;14.78;49.96;99749.66;4963612;27;98152;-67
2023/01/13 06:52:09;;;;;;;;;;;;;;;14.78;49.60;99746.13;4997530;27;98409;-67
2023/01/13 06:54:35;;;;;;;;;;;;;;;14.78;49.62;99743.41;4979901;27;126951;-67
2023/01/13 06:57:01;;;;;;;;;;;;;;;14.77;49.86;99748.03;4998289;27;109767;-67
2023/01/13 06:59:27;;;;;;;;;;;;;;;14.77;49.97;99745.31;4982418;27;101317;-67
2023/01/13 07:01:53;;;;;;;;;;;;;;;14.78;49.74;99746.94;4982111;27;98636;-68
2023/01/13 07:04:19;;;;;;;;;;;;;;;14.86;49.83;99748.09;4965817;27;127818;-68
2023/01/13 07:06:45;;;;;;;;;;;;;;;14.93;49.58;99749.25;4979957;27;122300;-68
2023/01/13 07:09:11;;;;;;;;;;;;;;;15.00;49.83;99746.03;4982984;27;127315;-67
2023/01/13 07:11:37;;;;;;;;;;;;;;;15.06;50.00;99746.72;4969235;27;98077;-67
2023/01/13 07:16:47;;;;;;;;;;;;;;;15.16;49.66;99744.50;4988170;27;98187;-67
2023/01/13 07:19:14;;;;;;;;;;;;;;;15.19;49.41;99741.16;5001146;27;127651;-67
2023/01/13 07:21:40;;;;;;;;;;;;;;;15.23;49.63;99750.28;4984087;27;98104;-67
2023/01/13 07:24:06;;;;;;;;;;;;;;;15.25;49.86;99744.53;4986266;27;97911;-67
2023/01/13 07:26:32;;;;;;;;;;;;;;;15.28;49.96;99752.03;4987387;27;117720;-68
2023/01/13 07:28:58;;;;;;;;;;;;;;;15.32;49.62;99749.50;4986480;27;127190;-67
2023/01/13 07:31:24;;;;;;;;;;;;;;;15.34;49.67;99756.22;4968937;27;117309;-67
2023/01/13 07:33:50;;;;;;;;;;;;;;;15.37;49.77;99757.50;5000642;27;98341;-67
2023/01/13 07:36:16;;;;;;;;;;;;;;;15.40;49.66;99760.38;4967624;27;98137;-67
2023/01/13 07:38:43;;;;;;;;;;;;;;;15.42;49.75;99755.44;5000369;27;127933;-67
2023/01/13 07:43:56;;;;;;;;;;;;;;;15.49;49.45;99746.84;4989725;27;98026;-68
2023/01/13 07:46:22;;;;;;;;;;;;;;;15.53;49.66;99749.72;4984503;27;122880;-67
2023/01/13 07:48:48;;;;;;;;;;;;;;;15.56;49.75;99743.63;4982240;27;127551;-68
2023/01/13 07:51:14;;;;;;;;;;;;;;;15.59;49.53;99745.72;4983376;27;128026;-68
2023/01/13 07:53:40;;;;;;;;;;;;;;;15.62;49.62;99737.72;4984332;27;127497;-68
2023/01/13 07:56:06;;;;;;;;;;;;;;;15.66;49.47;99740.66;4983036;27;125048;-68
2023/01/13 07:58:33;;;;;;;;;;;;;;;15.71;49.59;99743.19;4999674;27;100494;-68
2023/01/13 08:00:59;;;;;;;;;;;;;;;15.74;49.51;99744.50;4964936;27;115741;-68
2023/01/13 08:03:25;;;;;;;;;;;;;;;15.75;49.64;99751.50;4969439;27;129005;-68
2023/01/13 08:05:51;;;;;;;;;;;;;;;15.80;49.58;99745.91;5000503;27;116033;-68
2023/01/13 08:08:17;;;;;;;;;;;;;;;15.84;49.47;99758.56;4965521;27;98058;-67
2023/01/13 08:10:43;;;;;;;;;;;;;;;15.98;49.33;99755.69;4969091;27;118260;-67
2023/01/13 08:13:18;;;;;;;;;;;;;;;16.00;49.24;99756.16;4999285;27;98635;-67
2023/01/13 08:15:45;;;;;;;;;;;;;;;15.99;49.35;99748.31;4968383;27;97961;-67
2023/01/13 08:18:11;;;;;;;;;;;;;;;15.98;49.43;99747.53;4984382;27;99085;-68
2023/01/13 08:20:37;;;;;;;;;;;;;;;15.98;49.47;99750.25;4967600;27;97886;-67
2023/01/13 08:23:03;;;;;;;;;;;;;;;15.95;49.48;99754.41;4964648;27;107524;-67
2023/01/13 08:25:29;;;;;;;;;;;;;;;15.95;49.68;99750.88;4963663;27;118019;-67
2023/01/13 08:27:55;;;;;;;;;;;;;;;15.91;49.72;99749.91;4982484;27;104735;-68
2023/01/13 08:30:21;;;;;;;;;;;;;;;15.89;49.58;99749.44;4981291;27;124700;-68
2023/01/13 08:32:47;;;;;;;;;;;;;;;15.89;49.63;99757.59;4985098;27;102981;-67
2023/01/13 08:35:14;;;;;;;;;;;;;;;15.90;49.58;99757.28;4967407;27;97985;-67
2023/01/13 08:37:40;;;;;;;;;;;;;;;15.88;49.68;99759.53;4981244;27;98469;-67
2023/01/13 08:40:06;;;;;;;;;;;;;;;15.87;49.42;99762.53;4967939;27;99381;-67
2023/01/13 08:42:32;;;;;;;;;;;;;;;15.88;49.66;99775.81;4961255;27;108684;-67
2023/01/13 08:44:58;;;;;;;;;;;;;;;15.85;49.61;99776.47;4982492;27;97944;-67
2023/01/13 08:47:25;;;;;;;;;;;;;;;15.85;49.65;99781.09;4981163;27;127531;-66
2023/01/13 08:49:51;;;;;;;;;;;;;;;15.88;49.49;99783.97;4983702;27;106473;-65
2023/01/13 08:52:17;;;;;;;;;;;;;;;15.89;49.55;99791.00;4966698;27;125517;-66
2023/01/13 08:54:43;;;;;;;;;;;;;;;15.84;49.45;99850.97;4984638;27;97933;-63
2023/01/13 08:57:09;;;;;;;;;;;;;;;15.82;49.67;99858.59;4967252;27;128400;-66
2023/01/13 08:59:35;;;;;;;;;;;;;;;15.83;49.40;99859.41;4966319;27;128375;-65
2023/01/13 09:02:02;;;;;;;;;;;;;;;15.84;49.67;99877.34;4983909;27;126390;-66
2023/01/13 09:04:28;;;;;;;;;;;;;;;15.83;49.58;99875.72;4966374;27;98028;-67
2023/01/13 09:06:54;;;;;;;;;;;;;;;15.81;49.59;99884.19;4983075;27;98284;-66
2023/01/13 09:09:20;;;;;;;;;;;;;;;15.81;49.51;99886.09;4969846;27;127576;-65
2023/01/13 09:14:35;;;;;;;;;;;;;;;15.86;49.46;99884.03;4986412;27;97863;-64
2023/01/13 09:17:01;;;;;;;;;;;;;;;15.94;49.46;99883.25;4983907;27;113923;-66
2023/01/13 09:19:27;;;;;;;;;;;;;;;15.99;49.35;99890.44;4983103;27;100043;-67
2023/01/13 09:21:54;;;;;;;;;;;;;;;16.18;49.29;99885.53;4982224;27;123228;-66
2023/01/13 09:24:20;;;;;;;;;;;;;;;16.35;48.96;99878.50;4984228;27;102583;-67
2023/01/13 09:26:47;;;;;;;;;;;;;;;16.47;48.87;99875.16;4983159;27;109656;-65
2023/01/13 09:29:13;;;;;;;;;;;;;;;16.48;48.84;99877.53;4980907;27;120023;-65
2023/01/13 09:31:39;;;;;;;;;;;;;;;16.49;48.99;99870.97;4968376;27;127826;-67
2023/01/13 09:36:50;;;;;;;;;;;;;;;16.53;48.97;99871.94;4987766;27;98013;-65
2023/01/13 09:39:16;;;;;;;;;;;;;;;16.51;49.18;99865.22;4999381;27;130978;-67
2023/01/13 09:44:54;;;;;;;;;;;;;;;16.38;49.38;99848.72;4987256;27;98422;-67
2023/01/13 09:47:32;;;;;;;;;;;;;;;16.30;49.32;99837.88;4970851;27;98424;-66
2023/01/13 09:50:14;;;;;;;;;;;;;;;16.24;49.46;99860.91;4984218;27;98009;-66
2023/01/13 09:52:41;;;;;;;;;;;;;;;16.19;49.40;99899.91;4983835;27;120573;-65
2023/01/13 09:55:35;;;;;;;;;;;;;;;16.30;49.39;99922.16;4970654;27;98114;-68
2023/01/13 09:58:09;;;;;;;;;;;;;;;16.51;49.12;99904.13;4984522;27;122631;-65
2023/01/13 10:00:38;;;;;;;;;;;;;;;16.63;49.05;99912.44;4987544;27;128773;-67
2023/01/13 10:03:23;;;;;;;;;;;;;;;16.73;48.90;99899.59;4982809;27;99603;-66
2023/01/13 10:06:03;;;;;;;;;;;;;;;16.79;48.97;99891.00;5018818;27;97900;-66
2023/01/13 10:08:33;;;;;;;;;;;;;;;16.91;48.77;99885.69;4986219;27;98480;-66
2023/01/13 10:13:13;;;;;;;;;;;;;;;16.87;48.89;99898.34;4983887;27;100264;-67
2023/01/13 10:14:16;;;;;;;;;;;;;;;16.77;48.98;99893.22;4991901;27;98041;-66
2023/01/13 10:16:43;;;;;;;;;;;;;;;16.63;49.32;99898.81;4984867;27;98005;-67
2023/01/13 10:19:17;;;;;;;;;;;;;;;16.54;49.46;99908.88;4998510;27;104414;-67
2023/01/13 10:22:05;;;;;;;;;;;;;;;16.45;49.49;99914.34;4983623;27;98374;-66
2023/01/13 10:24:57;;;;;;;;;;;;;;;16.37;49.59;99906.97;4989747;27;98972;-65
2023/01/13 10:27:37;;;;;;;;;;;;;;;16.32;49.50;99884.59;4999075;27;119176;-67
2023/01/13 10:30:29;;;;;;;;;;;;;;;16.33;49.53;99878.81;4984918;27;100477;-67
2023/01/13 10:32:57;;;;;;;;;;;;;;;16.38;49.30;99870.50;4965563;27;98012;-66
2023/01/13 10:35:48;;;;;;;;;;;;;;;16.38;49.38;99865.06;4969968;27;98904;-65
2023/01/13 10:38:16;;;;;;;;;;;;;;;16.35;49.36;99852.13;5016541;27;97829;-65
2023/01/13 10:40:52;;;;;;;;;;;;;;;16.33;49.42;99853.53;4982431;27;99351;-67
2023/01/13 10:43:18;;;;;;;;;;;;;;;16.29;49.47;99856.09;4964397;27;98031;-65
2023/01/13 10:46:01;;;;;;;;;;;;;;;16.32;49.35;99868.28;4984476;27;111494;-65
2023/01/13 10:48:36;;;;;;;;;;;;;;;16.32;49.20;99862.84;4989230;27;98214;-65
2023/01/13 10:51:37;;;;;;;;;;;;;;;16.24;49.47;99850.84;4970876;27;99814;-65
2023/01/13 10:54:12;;;;;;;;;;;;;;;16.17;49.56;99848.59;4999210;27;98124;-65
2023/01/13 10:56:39;;;;;;;;;;;;;;;16.13;49.66;99842.19;5004638;27;98091;-65
2023/01/13 10:59:13;;;;;;;;;;;;;;;16.11;49.68;99844.44;5019797;27;106683;-64
2023/01/13 11:01:50;;;;;;;;;;;;;;;16.10;49.71;99833.88;4973900;27;98240;-65
2023/01/13 11:04:31;;;;;;;;;;;;;;;16.07;49.55;99820.91;4986255;27;127189;-66
2023/01/13 11:06:57;;;;;;;;;;;;;;;16.02;49.73;99812.91;4986866;27;99679;-64
2023/01/13 11:09:24;;;;;;;;;;;;;;;15.97;49.65;99794.84;4985139;27;97975;-64
2023/01/13 11:11:54;;;;;;;;;;;;;;;15.93;49.74;99799.31;4986509;27;106024;-66
2023/01/13 11:14:38;;;;;;;;;;;;;;;15.92;49.74;99806.69;4990163;27;98680;-66
2023/01/13 11:17:39;;;;;;;;;;;;;;;15.90;49.64;99810.81;4984861;27;97911;-65
2023/01/13 11:20:14;;;;;;;;;;;;;;;15.88;49.73;99811.16;5004002;27;98023;-66
2023/01/13 11:22:51;;;;;;;;;;;;;;;15.94;50.03;99812.59;4983037;27;99557;-67
2023/01/13 11:25:41;;;;;;;;;;;;;;;15.99;49.57;99818.97;4966410;27;98042;-68
2023/01/13 11:28:30;;;;;;;;;;;;;;;16.06;49.45;99822.03;4986716;27;97992;-67
2023/01/13 11:31:15;;;;;;;;;;;;;;;16.17;49.38;99826.03;5003735;27;115762;-66
2023/01/13 11:34:00;;;;;;;;;;;;;;;16.26;49.14;99828.75;5006598;27;98287;-66
2023/01/13 11:36:36;;;;;;;;;;;;;;;16.27;49.21;99839.31;4987788;27;98464;-67
2023/01/13 11:39:16;;;;;;;;;;;;;;;16.25;49.37;99844.28;4967987;27;99774;-67
2023/01/13 11:42:19;;;;;;;;;;;;;;;16.26;49.35;99850.50;5003253;27;98027;-66
2023/01/13 11:44:53;;;;;;;;;;;;;;;16.37;49.17;99849.06;4991432;27;98469;-67
2023/01/13 11:47:20;;;;;;;;;;;;;;;16.42;49.13;99855.13;4987958;27;98299;-68
2023/01/13 11:49:47;;;;;;;;;;;;;;;16.46;49.02;99860.72;4999936;27;121810;-66
2023/01/13 11:52:22;;;;;;;;;;;;;;;16.48;49.11;99857.72;4966469;27;97864;-66
2023/01/13 11:55:03;;;;;;;;;;;;;;;16.42;49.29;99846.19;4979027;27;99857;-67
2023/01/13 11:57:53;;;;;;;;;;;;;;;16.34;49.33;99850.50;5000152;27;100548;-66
2023/01/13 12:00:37;;;;;;;;;;;;;;;16.23;49.53;99842.97;4979598;27;99174;-66
2023/01/13 12:03:12;;;;;;;;;;;;;;;16.20;49.58;99858.81;4994394;27;98341;-68
2023/01/13 12:05:58;;;;;;;;;;;;;;;16.24;49.43;99859.00;4990898;27;98157;-68
2023/01/13 12:08:49;;;;;;;;;;;;;;;16.32;49.34;99860.13;4978773;27;99968;-67
2023/01/13 12:11:17;;;;;;;;;;;;;;;16.46;49.08;99863.44;4996648;27;98189;-66
2023/01/13 12:14:05;;;;;;;;;;;;;;;16.60;48.92;99874.97;4976983;27;98166;-67
2023/01/13 12:16:31;;;;;;;;;;;;;;;16.67;49.05;99869.84;4982368;27;98361;-67
2023/01/13 12:19:10;;;;;;;;;;;;;;;16.67;49.09;99866.34;4974136;27;122287;-67
2023/01/13 12:21:56;;;;;;;;;;;;;;;16.64;49.02;99856.88;4997670;27;107044;-67
2023/01/13 12:24:24;;;;;;;;;;;;;;;16.63;49.27;99858.00;4978169;27;98085;-68
2023/01/13 12:27:02;;;;;;;;;;;;;;;16.65;49.10;99857.69;4993015;27;98051;-67
2023/01/13 12:29:30;;;;;;;;;;;;;;;16.65;49.26;99857.69;4979279;27;97880;-67
2023/01/13 12:31:56;;;;;;;;;;;;;;;16.64;49.19;99859.59;4980515;27;99065;-67
2023/01/13 12:34:43;;;;;;;;;;;;;;;16.76;49.05;99855.47;4962780;27;121537;-69
2023/01/13 12:37:24;;;;;;;;;;;;;;;16.84;48.96;99852.72;4963858;27;100187;-67
2023/01/13 12:39:57;;;;;;;;;;;;;;;16.79;49.04;99839.28;4962858;27;127553;-66
2023/01/13 12:45:09;;;;;;;;;;;;;;;16.62;49.36;99839.28;5005943;27;99862;-66
2023/01/13 12:47:37;;;;;;;;;;;;;;;16.56;49.30;99840.56;4996798;27;98272;-68
2023/01/13 12:50:36;;;;;;;;;;;;;;;16.50;49.59;99848.09;4965467;27;99696;-67
2023/01/13 12:53:31;;;;;;;;;;;;;;;16.43;49.48;99854.03;4958032;27;99319;-68
2023/01/13 12:56:34;;;;;;;;;;;;;;;16.36;49.57;99844.75;5000303;27;98277;-67
2023/01/13 12:59:20;;;;;;;;;;;;;;;16.30;49.73;99851.47;4999660;27;117608;-68
2023/01/13 13:02:08;;;;;;;;;;;;;;;16.24;49.68;99855.47;4999557;27;99089;-68
2023/01/13 13:04:42;;;;;;;;;;;;;;;16.19;49.68;99859.94;4998408;27;99558;-67
2023/01/13 13:07:11;;;;;;;;;;;;;;;16.16;49.66;99867.94;4962381;27;98216;-67
2023/01/13 13:09:50;;;;;;;;;;;;;;;16.13;49.76;99869.38;4967679;27;108430;-67
2023/01/13 13:15:25;;;;;;;;;;;;;;;16.08;49.61;99869.53;5000292;27;98156;-67
2023/01/13 13:18:23;;;;;;;;;;;;;;;16.06;49.72;99868.25;4977626;27;97814;-66
2023/01/13 13:20:55;;;;;;;;;;;;;;;16.03;49.81;99861.50;4981108;27;100187;-68
2023/01/13 13:23:57;;;;;;;;;;;;;;;16.00;49.76;99875.75;4997759;27;98098;-67
2023/01/13 13:26:45;;;;;;;;;;;;;;;15.99;49.81;99881.50;4998429;27;98886;-66
2023/01/13 13:29:34;;;;;;;;;;;;;;;15.94;49.81;99885.97;4998644;27;98253;-67
2023/01/13 13:32:29;;;;;;;;;;;;;;;15.92;49.75;99885.50;4981578;27;124028;-66
2023/01/13 13:35:06;;;;;;;;;;;;;;;15.91;49.61;99891.22;4999659;27;118920;-66
2023/01/13 13:46:46;;;;;;;;;;;;;;;15.85;49.78;99885.16;4980653;27;98193;-67
2023/01/13 13:49:19;;;;;;;;;;;;;;;15.84;49.81;99894.44;4998483;27;99366;-67
2023/01/13 13:52:02;;;;;;;;;;;;;;;15.85;49.79;99893.31;4984316;27;97908;-67
2023/01/13 13:54:28;;;;;;;;;;;;;;;15.86;49.85;99889.47;4996079;27;98111;-67
2023/01/13 13:56:54;;;;;;;;;;;;;;;15.89;49.77;99886.13;4982602;27;124413;-66
2023/01/13 13:59:22;;;;;;;;;;;;;;;15.91;49.77;99883.88;4981810;27;128134;-66